createdAt,value
2018-07-30T00:00:19.052Z,0.00
2018-07-30T00:01:19.037Z,0.00
2018-07-30T00:02:19.022Z,0.00
2018-07-30T00:03:19.008Z,0.00
2018-07-30T00:04:18.980Z,0.00
2018-07-30T00:05:18.976Z,0.00
2018-07-30T00:06:18.968Z,0.00
2018-07-30T00:07:18.954Z,0.00
2018-07-30T00:08:18.942Z,0.00
2018-07-30T00:09:18.925Z,0.00
2018-07-30T00:10:18.897Z,0.00
2018-07-30T00:11:18.894Z,0.00
2018-07-30T00:12:18.894Z,0.00
2018-07-30T00:13:18.874Z,0.00
2018-07-30T00:14:18.854Z,0.00
2018-07-30T00:15:18.840Z,0.00
2018-07-30T00:16:18.821Z,0.00
2018-07-30T00:17:18.811Z,0.00
2018-07-30T00:18:18.785Z,0.00
2018-07-30T00:19:18.805Z,0.00
2018-07-30T00:20:18.760Z,0.00
2018-07-30T00:21:18.807Z,0.00
2018-07-30T00:22:18.739Z,0.00
2018-07-30T00:23:18.718Z,0.00
2018-07-30T00:24:18.721Z,0.00
2018-07-30T00:25:18.692Z,0.00
2018-07-30T00:26:18.690Z,0.00
2018-07-30T00:27:18.655Z,0.00
2018-07-30T00:28:18.654Z,0.00
2018-07-30T00:29:18.666Z,0.00
2018-07-30T00:30:18.623Z,0.00
2018-07-30T00:31:18.645Z,0.00
2018-07-30T00:32:18.603Z,0.00
2018-07-30T00:33:18.574Z,0.00
2018-07-30T00:34:18.559Z,0.00
2018-07-30T00:35:18.568Z,0.00
2018-07-30T00:36:18.539Z,0.00
2018-07-30T00:37:18.521Z,0.00
2018-07-30T00:38:18.508Z,0.00
2018-07-30T00:39:18.498Z,0.00
2018-07-30T00:40:18.495Z,0.00
2018-07-30T00:41:18.457Z,0.00
2018-07-30T00:42:18.443Z,0.00
2018-07-30T00:43:18.425Z,0.00
2018-07-30T00:44:18.424Z,0.00
2018-07-30T00:45:18.408Z,0.00
2018-07-30T00:46:18.386Z,0.00
2018-07-30T00:47:18.373Z,0.00
2018-07-30T00:48:18.429Z,0.00
2018-07-30T00:49:18.367Z,0.00
2018-07-30T00:50:18.332Z,0.00
2018-07-30T00:51:18.415Z,0.00
2018-07-30T00:52:18.308Z,0.00
2018-07-30T00:53:18.275Z,0.00
2018-07-30T00:54:18.272Z,0.00
2018-07-30T00:55:18.272Z,0.00
2018-07-30T00:56:18.247Z,0.00
2018-07-30T00:57:18.244Z,0.00
2018-07-30T00:58:18.221Z,0.00
2018-07-30T00:59:18.211Z,0.00
2018-07-30T01:00:18.188Z,0.00
2018-07-30T01:01:18.176Z,0.00
2018-07-30T01:02:18.160Z,0.00
2018-07-30T01:03:18.138Z,0.00
2018-07-30T01:04:18.131Z,0.00
2018-07-30T01:05:18.106Z,0.00
2018-07-30T01:06:18.098Z,0.00
2018-07-30T01:07:18.085Z,0.00
2018-07-30T01:08:18.097Z,0.00
2018-07-30T01:09:18.069Z,0.00
2018-07-30T01:10:18.048Z,0.00
2018-07-30T01:11:18.026Z,0.00
2018-07-30T01:12:18.035Z,0.00
2018-07-30T01:13:18.020Z,0.00
2018-07-30T01:14:18.005Z,0.00
2018-07-30T01:15:17.963Z,0.00
2018-07-30T01:16:17.956Z,0.00
2018-07-30T01:17:17.966Z,0.00
2018-07-30T01:18:17.924Z,0.00
2018-07-30T01:19:17.904Z,0.00
2018-07-30T01:20:17.887Z,0.00
2018-07-30T01:21:17.904Z,0.00
2018-07-30T01:22:17.865Z,0.00
2018-07-30T01:23:17.860Z,0.00
2018-07-30T01:24:17.837Z,0.00
2018-07-30T01:25:17.819Z,0.00
2018-07-30T01:26:17.834Z,0.00
2018-07-30T01:27:17.805Z,0.00
2018-07-30T01:28:17.795Z,0.00
2018-07-30T01:29:17.792Z,0.00
2018-07-30T01:30:17.751Z,0.00
2018-07-30T01:31:17.737Z,0.00
2018-07-30T01:32:17.726Z,0.00
2018-07-30T01:33:17.708Z,0.00
2018-07-30T01:34:17.711Z,0.00
2018-07-30T01:35:17.681Z,0.00
2018-07-30T01:36:17.662Z,0.00
2018-07-30T01:37:17.653Z,0.00
2018-07-30T01:38:17.634Z,0.00
2018-07-30T01:39:17.627Z,0.00
2018-07-30T01:40:17.601Z,0.00
2018-07-30T01:41:17.594Z,0.00
2018-07-30T01:42:17.583Z,0.00
2018-07-30T01:43:17.580Z,0.00
2018-07-30T01:44:17.548Z,0.00
2018-07-30T01:45:17.557Z,0.00
2018-07-30T01:46:17.531Z,0.00
2018-07-30T01:47:17.508Z,0.00
2018-07-30T01:48:17.492Z,0.00
2018-07-30T01:49:17.498Z,0.00
2018-07-30T01:50:17.472Z,0.00
2018-07-30T01:51:17.471Z,0.00
2018-07-30T01:52:17.425Z,0.00
2018-07-30T01:53:17.441Z,0.00
2018-07-30T01:54:17.403Z,0.00
2018-07-30T01:55:17.388Z,0.00
2018-07-30T01:56:17.380Z,0.00
2018-07-30T01:57:17.354Z,0.00
2018-07-30T01:58:17.367Z,0.00
2018-07-30T01:59:17.327Z,0.00
2018-07-30T02:00:17.323Z,0.00
2018-07-30T02:01:17.296Z,0.00
2018-07-30T02:02:17.286Z,0.00
2018-07-30T02:03:17.271Z,0.00
2018-07-30T02:04:17.254Z,0.00
2018-07-30T02:05:17.252Z,0.00
2018-07-30T02:06:17.219Z,0.00
2018-07-30T02:07:17.213Z,0.00
2018-07-30T02:08:17.216Z,0.00
2018-07-30T02:09:17.181Z,0.00
2018-07-30T02:10:17.168Z,0.00
2018-07-30T02:11:17.150Z,0.00
2018-07-30T02:12:17.140Z,0.00
2018-07-30T02:13:17.136Z,0.00
2018-07-30T02:14:17.107Z,0.00
2018-07-30T02:15:17.104Z,0.00
2018-07-30T02:16:17.081Z,0.00
2018-07-30T02:17:17.066Z,0.00
2018-07-30T02:18:17.052Z,0.00
2018-07-30T02:19:17.031Z,0.00
2018-07-30T02:20:17.017Z,0.00
2018-07-30T02:21:17.015Z,0.00
2018-07-30T02:22:16.994Z,0.00
2018-07-30T02:23:16.989Z,0.00
2018-07-30T02:24:16.962Z,0.00
2018-07-30T02:25:16.979Z,0.00
2018-07-30T02:26:16.954Z,0.00
2018-07-30T02:27:16.913Z,0.00
2018-07-30T02:28:16.909Z,0.00
2018-07-30T02:29:16.896Z,0.00
2018-07-30T02:30:16.890Z,0.00
2018-07-30T02:31:16.889Z,0.00
2018-07-30T02:32:16.857Z,0.00
2018-07-30T02:33:16.857Z,0.00
2018-07-30T02:34:16.806Z,0.00
2018-07-30T02:35:16.800Z,0.00
2018-07-30T02:36:16.784Z,0.00
2018-07-30T02:37:16.771Z,0.00
2018-07-30T02:38:16.762Z,0.00
2018-07-30T02:39:16.765Z,0.00
2018-07-30T02:40:16.723Z,0.00
2018-07-30T02:41:16.714Z,0.00
2018-07-30T02:42:16.700Z,0.00
2018-07-30T02:43:16.688Z,0.00
2018-07-30T02:44:16.672Z,0.00
2018-07-30T02:45:16.652Z,0.00
2018-07-30T02:46:16.632Z,0.00
2018-07-30T02:47:16.631Z,0.00
2018-07-30T02:48:16.612Z,0.00
2018-07-30T02:49:16.597Z,0.00
2018-07-30T02:50:16.578Z,0.00
2018-07-30T02:51:16.565Z,0.00
2018-07-30T02:52:16.572Z,0.00
2018-07-30T02:53:16.527Z,0.00
2018-07-30T02:54:16.540Z,0.00
2018-07-30T02:55:16.509Z,0.00
2018-07-30T02:56:16.486Z,0.00
2018-07-30T02:57:16.483Z,0.00
2018-07-30T02:58:16.460Z,0.00
2018-07-30T02:59:16.484Z,0.00
2018-07-30T03:00:16.433Z,0.00
2018-07-30T03:01:16.422Z,0.00
2018-07-30T03:02:16.425Z,0.00
2018-07-30T03:03:16.384Z,0.00
2018-07-30T03:04:16.368Z,0.00
2018-07-30T03:05:16.370Z,0.00
2018-07-30T03:06:16.339Z,0.00
2018-07-30T03:07:16.332Z,0.00
2018-07-30T03:08:16.319Z,0.00
2018-07-30T03:09:16.325Z,0.00
2018-07-30T03:10:16.284Z,0.00
2018-07-30T03:11:16.265Z,0.00
2018-07-30T03:12:16.250Z,0.00
2018-07-30T03:13:16.234Z,0.00
2018-07-30T03:14:16.230Z,0.00
2018-07-30T03:15:16.204Z,0.00
2018-07-30T03:16:16.211Z,4.00
2018-07-30T03:17:16.176Z,4.00
2018-07-30T03:18:16.186Z,4.00
2018-07-30T03:19:16.144Z,4.00
2018-07-30T03:20:16.132Z,4.00
2018-07-30T03:21:16.116Z,8.00
2018-07-30T03:22:16.097Z,4.00
2018-07-30T03:23:16.085Z,8.00
2018-07-30T03:24:16.071Z,8.00
2018-07-30T03:25:16.046Z,12.00
2018-07-30T03:26:16.030Z,12.00
2018-07-30T03:27:16.020Z,12.00
2018-07-30T03:28:16.004Z,12.00
2018-07-30T03:29:15.988Z,16.00
2018-07-30T03:30:15.969Z,20.00
2018-07-30T03:31:15.955Z,20.00
2018-07-30T03:32:15.943Z,28.00
2018-07-30T03:33:15.928Z,28.00
2018-07-30T03:34:15.914Z,32.00
2018-07-30T03:35:15.893Z,40.00
2018-07-30T03:36:15.874Z,44.00
2018-07-30T03:37:15.861Z,52.00
2018-07-30T03:38:15.848Z,56.00
2018-07-30T03:39:15.839Z,64.00
2018-07-30T03:40:15.813Z,72.00
2018-07-30T03:41:15.804Z,80.00
2018-07-30T03:42:15.829Z,92.00
2018-07-30T03:43:15.772Z,104.00
2018-07-30T03:44:15.752Z,116.00
2018-07-30T03:45:15.743Z,132.00
2018-07-30T03:46:15.730Z,144.00
2018-07-30T03:47:15.712Z,156.00
2018-07-30T03:48:15.707Z,172.00
2018-07-30T03:49:15.677Z,192.00
2018-07-30T03:50:15.667Z,212.00
2018-07-30T03:51:15.647Z,228.00
2018-07-30T03:52:15.634Z,248.00
2018-07-30T03:53:15.616Z,268.00
2018-07-30T03:54:15.603Z,288.00
2018-07-30T03:55:15.591Z,312.00
2018-07-30T03:56:15.574Z,336.00
2018-07-30T03:57:15.558Z,356.00
2018-07-30T03:58:15.539Z,384.00
2018-07-30T03:59:15.526Z,408.00
2018-07-30T04:00:15.551Z,436.00
2018-07-30T04:01:15.493Z,460.00
2018-07-30T04:02:15.487Z,484.00
2018-07-30T04:03:15.470Z,512.00
2018-07-30T04:04:15.454Z,540.00
2018-07-30T04:05:15.436Z,568.00
2018-07-30T04:06:15.544Z,600.00
2018-07-30T04:07:15.406Z,628.00
2018-07-30T04:08:15.391Z,656.00
2018-07-30T04:09:15.378Z,684.00
2018-07-30T04:10:15.365Z,716.00
2018-07-30T04:11:15.349Z,744.00
2018-07-30T04:12:15.329Z,776.00
2018-07-30T04:13:15.315Z,808.00
2018-07-30T04:14:15.306Z,836.00
2018-07-30T04:15:15.284Z,868.00
2018-07-30T04:16:15.267Z,896.00
2018-07-30T04:17:15.255Z,928.00
2018-07-30T04:18:15.241Z,960.00
2018-07-30T04:19:15.226Z,988.00
2018-07-30T04:20:15.207Z,1020.00
2018-07-30T04:21:15.197Z,1048.00
2018-07-30T04:22:15.245Z,1076.00
2018-07-30T04:23:15.161Z,1104.00
2018-07-30T04:24:15.150Z,1136.00
2018-07-30T04:25:15.133Z,1164.00
2018-07-30T04:26:15.120Z,1192.00
2018-07-30T04:27:15.100Z,1220.00
2018-07-30T04:28:15.084Z,1248.00
2018-07-30T04:29:15.071Z,1272.00
2018-07-30T04:30:15.055Z,1296.00
2018-07-30T04:31:15.039Z,1324.00
2018-07-30T04:32:15.033Z,1348.00
2018-07-30T04:33:15.019Z,1372.00
2018-07-30T04:34:15.001Z,1392.00
2018-07-30T04:35:14.990Z,1420.00
2018-07-30T04:36:14.968Z,1440.00
2018-07-30T04:37:14.949Z,1464.00
2018-07-30T04:38:14.939Z,1488.00
2018-07-30T04:39:14.924Z,1512.00
2018-07-30T04:40:14.910Z,1536.00
2018-07-30T04:41:14.891Z,1564.00
2018-07-30T04:42:14.875Z,1588.00
2018-07-30T04:43:14.865Z,1612.00
2018-07-30T04:44:14.846Z,1640.00
2018-07-30T04:45:14.872Z,1660.00
2018-07-30T04:46:14.823Z,1684.00
2018-07-30T04:47:14.801Z,1704.00
2018-07-30T04:48:14.785Z,1728.00
2018-07-30T04:49:14.832Z,1752.00
2018-07-30T04:50:14.767Z,1772.00
2018-07-30T04:51:14.748Z,1796.00
2018-07-30T04:52:14.734Z,1816.00
2018-07-30T04:53:14.713Z,1840.00
2018-07-30T04:54:14.699Z,1864.00
2018-07-30T04:55:14.689Z,1884.00
2018-07-30T04:56:14.674Z,1908.00
2018-07-30T04:57:14.654Z,1928.00
2018-07-30T04:58:14.638Z,1952.00
2018-07-30T04:59:14.622Z,1968.00
2018-07-30T05:00:14.612Z,1992.00
2018-07-30T05:01:14.606Z,2012.00
2018-07-30T05:02:14.584Z,2028.00
2018-07-30T05:03:14.566Z,2048.00
2018-07-30T05:04:14.555Z,2064.00
2018-07-30T05:05:14.545Z,2084.00
2018-07-30T05:06:14.524Z,2104.00
2018-07-30T05:07:14.507Z,2124.00
2018-07-30T05:08:14.501Z,2144.00
2018-07-30T05:09:14.478Z,2160.00
2018-07-30T05:10:14.479Z,2176.00
2018-07-30T05:11:14.459Z,2196.00
2018-07-30T05:12:14.437Z,2212.00
2018-07-30T05:13:14.424Z,2224.00
2018-07-30T05:14:14.414Z,2244.00
2018-07-30T05:15:14.392Z,2260.00
2018-07-30T05:16:14.385Z,2276.00
2018-07-30T05:17:14.373Z,2292.00
2018-07-30T05:18:14.357Z,2308.00
2018-07-30T05:19:14.392Z,2328.00
2018-07-30T05:20:14.325Z,2344.00
2018-07-30T05:21:14.312Z,2360.00
2018-07-30T05:22:14.300Z,2380.00
2018-07-30T05:23:14.286Z,2396.00
2018-07-30T05:24:14.266Z,2416.00
2018-07-30T05:25:14.260Z,2432.00
2018-07-30T05:26:14.253Z,2448.00
2018-07-30T05:27:14.231Z,2468.00
2018-07-30T05:28:14.221Z,2480.00
2018-07-30T05:29:14.199Z,2496.00
2018-07-30T05:30:14.185Z,2512.00
2018-07-30T05:31:14.173Z,2540.00
2018-07-30T05:32:14.158Z,2564.00
2018-07-30T05:33:14.151Z,2588.00
2018-07-30T05:34:14.134Z,2688.00
2018-07-30T05:35:14.112Z,3104.00
2018-07-30T05:36:14.100Z,2804.00
2018-07-30T05:37:14.126Z,2796.00
2018-07-30T05:38:14.078Z,3120.00
2018-07-30T05:39:14.059Z,2988.00
2018-07-30T05:40:14.046Z,3544.00
2018-07-30T05:41:14.043Z,5416.00
2018-07-30T05:42:14.020Z,6604.00
2018-07-30T05:43:14.011Z,8124.00
2018-07-30T05:44:14.004Z,11400.00
2018-07-30T05:45:13.985Z,11284.00
2018-07-30T05:46:13.966Z,7940.00
2018-07-30T05:47:13.958Z,6032.00
2018-07-30T05:48:13.944Z,5712.00
2018-07-30T05:49:13.931Z,5208.00
2018-07-30T05:50:13.934Z,4224.00
2018-07-30T05:51:13.911Z,4008.00
2018-07-30T05:52:13.895Z,4640.00
2018-07-30T05:53:13.886Z,6080.00
2018-07-30T05:54:13.874Z,9788.00
2018-07-30T05:55:13.872Z,13764.00
2018-07-30T05:56:13.844Z,16096.00
2018-07-30T05:57:13.825Z,11556.00
2018-07-30T05:58:13.819Z,6584.00
2018-07-30T05:59:13.803Z,6904.00
2018-07-30T06:00:13.803Z,5932.00
2018-07-30T06:01:13.781Z,3788.00
2018-07-30T06:02:13.768Z,3772.00
2018-07-30T06:03:13.752Z,4512.00
2018-07-30T06:04:13.745Z,10236.00
2018-07-30T06:05:13.733Z,10320.00
2018-07-30T06:06:13.726Z,4040.00
2018-07-30T06:07:13.707Z,3140.00
2018-07-30T06:08:13.691Z,3108.00
2018-07-30T06:09:13.685Z,3164.00
2018-07-30T06:10:13.676Z,3480.00
2018-07-30T06:11:13.666Z,4168.00
2018-07-30T06:12:13.653Z,6388.00
2018-07-30T06:13:13.631Z,11472.00
2018-07-30T06:14:13.624Z,12992.00
2018-07-30T06:15:13.621Z,8544.00
2018-07-30T06:16:13.605Z,4516.00
2018-07-30T06:17:13.592Z,3848.00
2018-07-30T06:18:13.589Z,3712.00
2018-07-30T06:19:13.573Z,3440.00
2018-07-30T06:20:13.554Z,3320.00
2018-07-30T06:21:13.549Z,3280.00
2018-07-30T06:22:13.552Z,3280.00
2018-07-30T06:23:13.526Z,3288.00
2018-07-30T06:24:13.510Z,3304.00
2018-07-30T06:25:13.505Z,3328.00
2018-07-30T06:26:13.492Z,3352.00
2018-07-30T06:27:13.517Z,3380.00
2018-07-30T06:28:13.475Z,3404.00
2018-07-30T06:29:13.456Z,3432.00
2018-07-30T06:30:13.447Z,3456.00
2018-07-30T06:31:13.440Z,3464.00
2018-07-30T06:32:13.431Z,3464.00
2018-07-30T06:33:13.424Z,3460.00
2018-07-30T06:34:13.411Z,3464.00
2018-07-30T06:35:13.404Z,3472.00
2018-07-30T06:36:13.392Z,3484.00
2018-07-30T06:37:13.376Z,3480.00
2018-07-30T06:38:13.369Z,3488.00
2018-07-30T06:39:13.356Z,3492.00
2018-07-30T06:40:13.341Z,3500.00
2018-07-30T06:41:13.338Z,3508.00
2018-07-30T06:42:13.328Z,3516.00
2018-07-30T06:43:13.315Z,3532.00
2018-07-30T06:44:13.304Z,3544.00
2018-07-30T06:45:13.296Z,3568.00
2018-07-30T06:46:13.288Z,3592.00
2018-07-30T06:47:13.279Z,3620.00
2018-07-30T06:48:13.271Z,3648.00
2018-07-30T06:49:13.259Z,3676.00
2018-07-30T06:50:13.250Z,3700.00
2018-07-30T06:51:13.252Z,3724.00
2018-07-30T06:52:13.232Z,3748.00
2018-07-30T06:53:13.250Z,3768.00
2018-07-30T06:54:13.211Z,3792.00
2018-07-30T06:55:13.197Z,3848.00
2018-07-30T06:56:13.192Z,3904.00
2018-07-30T06:57:13.186Z,3900.00
2018-07-30T06:58:13.174Z,3896.00
2018-07-30T06:59:13.159Z,3904.00
2018-07-30T07:00:13.152Z,3912.00
2018-07-30T07:01:13.146Z,3924.00
2018-07-30T07:02:13.134Z,3944.00
2018-07-30T07:03:13.143Z,4024.00
2018-07-30T07:04:13.114Z,4232.00
2018-07-30T07:05:13.107Z,4244.00
2018-07-30T07:06:13.095Z,4268.00
2018-07-30T07:07:13.091Z,4324.00
2018-07-30T07:08:13.073Z,4224.00
2018-07-30T07:09:13.068Z,4196.00
2018-07-30T07:10:13.060Z,4232.00
2018-07-30T07:11:13.060Z,4196.00
2018-07-30T07:12:13.040Z,4220.00
2018-07-30T07:13:13.037Z,4240.00
2018-07-30T07:14:13.027Z,4248.00
2018-07-30T07:15:13.011Z,4264.00
2018-07-30T07:16:13.008Z,4284.00
2018-07-30T07:17:12.998Z,4304.00
2018-07-30T07:18:12.998Z,4324.00
2018-07-30T07:19:13.017Z,4324.00
2018-07-30T07:20:12.973Z,4328.00
2018-07-30T07:21:12.985Z,4348.00
2018-07-30T07:22:12.964Z,4524.00
2018-07-30T07:23:12.957Z,4660.00
2018-07-30T07:24:12.944Z,4744.00
2018-07-30T07:25:12.937Z,5300.00
2018-07-30T07:26:12.925Z,5540.00
2018-07-30T07:27:12.957Z,5636.00
2018-07-30T07:28:12.916Z,5716.00
2018-07-30T07:29:12.911Z,5740.00
2018-07-30T07:30:12.901Z,5732.00
2018-07-30T07:31:12.898Z,5764.00
2018-07-30T07:32:12.892Z,5828.00
2018-07-30T07:33:12.876Z,5912.00
2018-07-30T07:34:12.872Z,5956.00
2018-07-30T07:35:12.870Z,5976.00
2018-07-30T07:36:12.857Z,6012.00
2018-07-30T07:37:12.850Z,6028.00
2018-07-30T07:38:12.856Z,6016.00
2018-07-30T07:39:12.835Z,6004.00
2018-07-30T07:40:12.862Z,6040.00
2018-07-30T07:41:12.831Z,6120.00
2018-07-30T07:42:12.824Z,6096.00
2018-07-30T07:43:12.818Z,5980.00
2018-07-30T07:44:12.811Z,5952.00
2018-07-30T07:45:12.805Z,5928.00
2018-07-30T07:46:12.802Z,5812.00
2018-07-30T07:47:12.826Z,5408.00
2018-07-30T07:48:12.807Z,5472.00
2018-07-30T07:49:12.795Z,5624.00
2018-07-30T07:50:12.942Z,5696.00
2018-07-30T07:51:12.839Z,5728.00
2018-07-30T07:52:12.777Z,5664.00
2018-07-30T07:53:12.769Z,5512.00
2018-07-30T07:54:12.763Z,5232.00
2018-07-30T07:55:12.769Z,5504.00
2018-07-30T07:56:12.760Z,5236.00
2018-07-30T07:57:12.770Z,5216.00
2018-07-30T07:58:12.792Z,5424.00
2018-07-30T07:59:12.745Z,5360.00
2018-07-30T08:00:12.737Z,5616.00
2018-07-30T08:01:12.734Z,5740.00
2018-07-30T08:02:12.731Z,5816.00
2018-07-30T08:03:12.742Z,5764.00
2018-07-30T08:04:12.741Z,5716.00
2018-07-30T08:05:12.729Z,5700.00
2018-07-30T08:06:12.731Z,5692.00
2018-07-30T08:07:12.711Z,5692.00
2018-07-30T08:08:12.718Z,5704.00
2018-07-30T08:09:12.708Z,5716.00
2018-07-30T08:10:12.707Z,5748.00
2018-07-30T08:11:12.698Z,5780.00
2018-07-30T08:12:12.702Z,5808.00
2018-07-30T08:13:12.711Z,5840.00
2018-07-30T08:14:12.707Z,5876.00
2018-07-30T08:15:12.691Z,5932.00
2018-07-30T08:16:12.715Z,5924.00
2018-07-30T08:17:12.686Z,5908.00
2018-07-30T08:18:12.679Z,5900.00
2018-07-30T08:19:12.676Z,5924.00
2018-07-30T08:20:12.677Z,5948.00
2018-07-30T08:21:12.670Z,5984.00
2018-07-30T08:22:12.737Z,6028.00
2018-07-30T08:23:12.669Z,6072.00
2018-07-30T08:24:12.660Z,6132.00
2018-07-30T08:25:12.661Z,6196.00
2018-07-30T08:26:12.666Z,6276.00
2018-07-30T08:27:12.660Z,6384.00
2018-07-30T08:28:12.662Z,6564.00
2018-07-30T08:29:12.728Z,6772.00
2018-07-30T08:30:12.666Z,6940.00
2018-07-30T08:31:12.648Z,7064.00
2018-07-30T08:32:12.656Z,7172.00
2018-07-30T08:33:12.649Z,7280.00
2018-07-30T08:34:12.646Z,7368.00
2018-07-30T08:35:12.641Z,7452.00
2018-07-30T08:36:12.634Z,7532.00
2018-07-30T08:37:12.634Z,7616.00
2018-07-30T08:38:12.625Z,7720.00
2018-07-30T08:39:12.624Z,7804.00
2018-07-30T08:40:12.627Z,7904.00
2018-07-30T08:41:12.624Z,8032.00
2018-07-30T08:42:12.666Z,8200.00
2018-07-30T08:43:12.621Z,8412.00
2018-07-30T08:44:12.615Z,8652.00
2018-07-30T08:45:12.618Z,8948.00
2018-07-30T08:46:12.618Z,9236.00
2018-07-30T08:47:12.608Z,9556.00
2018-07-30T08:48:12.608Z,9912.00
2018-07-30T08:49:12.609Z,10212.00
2018-07-30T08:50:12.608Z,10512.00
2018-07-30T08:51:12.602Z,10820.00
2018-07-30T08:52:12.602Z,11444.00
2018-07-30T08:53:12.605Z,12200.00
2018-07-30T08:54:12.612Z,12564.00
2018-07-30T08:55:12.592Z,12688.00
2018-07-30T08:56:12.591Z,12800.00
2018-07-30T08:57:12.595Z,12912.00
2018-07-30T08:58:12.585Z,13124.00
2018-07-30T08:59:12.603Z,13416.00
2018-07-30T09:00:12.593Z,13608.00
2018-07-30T09:01:12.586Z,13856.00
2018-07-30T09:02:12.583Z,14188.00
2018-07-30T09:03:12.580Z,14532.00
2018-07-30T09:04:12.579Z,14964.00
2018-07-30T09:05:12.576Z,15444.00
2018-07-30T09:06:12.573Z,15944.00
2018-07-30T09:07:12.647Z,16580.00
2018-07-30T09:08:12.573Z,17340.00
2018-07-30T09:09:12.573Z,18560.00
2018-07-30T09:10:12.577Z,20768.00
2018-07-30T09:11:12.567Z,42912.00
2018-07-30T09:12:12.580Z,76544.00
2018-07-30T09:13:12.565Z,86816.00
2018-07-30T09:14:12.564Z,93120.00
2018-07-30T09:15:12.567Z,99264.00
2018-07-30T09:16:12.560Z,99904.00
2018-07-30T09:17:12.577Z,98528.00
2018-07-30T09:18:12.582Z,97760.00
2018-07-30T09:19:12.551Z,97440.00
2018-07-30T09:20:12.557Z,97344.00
2018-07-30T09:21:12.551Z,97088.00
2018-07-30T09:22:12.551Z,94656.00
2018-07-30T09:23:12.547Z,94048.00
2018-07-30T09:24:12.547Z,96960.00
2018-07-30T09:25:12.547Z,98720.00
2018-07-30T09:26:12.541Z,101856.00
2018-07-30T09:27:12.536Z,104128.00
2018-07-30T09:28:12.545Z,105760.00
2018-07-30T09:29:12.541Z,105600.00
2018-07-30T09:30:12.538Z,103520.00
2018-07-30T09:31:12.551Z,104096.00
2018-07-30T09:32:12.538Z,106880.00
2018-07-30T09:33:12.532Z,106880.00
2018-07-30T09:34:12.532Z,105056.00
2018-07-30T09:35:12.528Z,102144.00
2018-07-30T09:36:12.526Z,103296.00
2018-07-30T09:37:12.525Z,105504.00
2018-07-30T09:38:12.528Z,108896.00
2018-07-30T09:39:12.550Z,106528.00
2018-07-30T09:40:12.516Z,102720.00
2018-07-30T09:41:12.512Z,95712.00
2018-07-30T09:42:12.526Z,93728.00
2018-07-30T09:43:12.516Z,90848.00
2018-07-30T09:44:12.508Z,95840.00
2018-07-30T09:45:12.517Z,99360.00
2018-07-30T09:46:12.505Z,101664.00
2018-07-30T09:47:12.505Z,101568.00
2018-07-30T09:48:12.508Z,103328.00
2018-07-30T09:49:12.509Z,102752.00
2018-07-30T09:50:12.499Z,101440.00
2018-07-30T09:51:12.505Z,96416.00
2018-07-30T09:52:12.524Z,97600.00
2018-07-30T09:53:12.493Z,98912.00
2018-07-30T09:54:12.501Z,99296.00
2018-07-30T09:55:12.501Z,99616.00
2018-07-30T09:56:12.514Z,101088.00
2018-07-30T09:57:12.486Z,103872.00
2018-07-30T09:58:12.505Z,102528.00
2018-07-30T09:59:12.483Z,100960.00
2018-07-30T10:00:12.485Z,104416.00
2018-07-30T10:01:12.489Z,105664.00
2018-07-30T10:02:12.486Z,107456.00
2018-07-30T10:03:12.480Z,107616.00
2018-07-30T10:04:12.480Z,107616.00
2018-07-30T10:05:12.480Z,108192.00
2018-07-30T10:06:12.528Z,106560.00
2018-07-30T10:07:12.474Z,105952.00
2018-07-30T10:08:12.480Z,104288.00
2018-07-30T10:09:12.470Z,106848.00
2018-07-30T10:10:12.474Z,107872.00
2018-07-30T10:11:12.471Z,110624.00
2018-07-30T10:12:12.477Z,113760.00
2018-07-30T10:13:12.477Z,106080.00
2018-07-30T10:14:12.475Z,111680.00
2018-07-30T10:15:12.462Z,111328.00
2018-07-30T10:16:12.474Z,109408.00
2018-07-30T10:17:12.470Z,108672.00
2018-07-30T10:18:12.482Z,104928.00
2018-07-30T10:19:13.016Z,105344.00
2018-07-30T10:20:12.464Z,106688.00
2018-07-30T10:21:12.468Z,110592.00
2018-07-30T10:22:12.469Z,113056.00
2018-07-30T10:23:12.462Z,112896.00
2018-07-30T10:24:12.461Z,109760.00
2018-07-30T10:25:12.468Z,109088.00
2018-07-30T10:26:12.471Z,108224.00
2018-07-30T10:27:12.460Z,110176.00
2018-07-30T10:28:12.465Z,114528.00
2018-07-30T10:29:12.458Z,117760.00
2018-07-30T10:30:12.485Z,117312.00
2018-07-30T10:31:12.462Z,117312.00
2018-07-30T10:32:12.465Z,114944.00
2018-07-30T10:33:12.468Z,111104.00
2018-07-30T10:34:12.474Z,115232.00
2018-07-30T10:35:12.474Z,115520.00
2018-07-30T10:36:12.468Z,116352.00
2018-07-30T10:37:12.475Z,117120.00
2018-07-30T10:38:12.640Z,115488.00
2018-07-30T10:39:12.481Z,115136.00
2018-07-30T10:40:12.481Z,114912.00
2018-07-30T10:41:12.474Z,116640.00
2018-07-30T10:42:12.490Z,118528.00
2018-07-30T10:43:12.477Z,118880.00
2018-07-30T10:44:12.496Z,118176.00
2018-07-30T10:45:12.484Z,117856.00
2018-07-30T10:46:12.508Z,117408.00
2018-07-30T10:47:12.481Z,114912.00
2018-07-30T10:48:12.503Z,113184.00
2018-07-30T10:49:12.496Z,113088.00
2018-07-30T10:50:12.500Z,115136.00
2018-07-30T10:51:12.499Z,116160.00
2018-07-30T10:52:12.503Z,117984.00
2018-07-30T10:53:12.506Z,120160.00
2018-07-30T10:54:12.508Z,120768.00
2018-07-30T10:55:12.575Z,119904.00
2018-07-30T10:56:12.516Z,119200.00
2018-07-30T10:57:12.524Z,120576.00
2018-07-30T10:58:12.523Z,120800.00
2018-07-30T10:59:12.529Z,122048.00
2018-07-30T11:00:12.530Z,125184.00
2018-07-30T11:01:12.530Z,123872.00
2018-07-30T11:02:12.536Z,119520.00
2018-07-30T11:03:12.542Z,118560.00
2018-07-30T11:04:12.566Z,124640.00
2018-07-30T11:05:12.555Z,126272.00
2018-07-30T11:06:12.558Z,110624.00
2018-07-30T11:07:12.558Z,107296.00
2018-07-30T11:08:12.568Z,105568.00
2018-07-30T11:09:13.803Z,111072.00
2018-07-30T11:10:12.571Z,104096.00
2018-07-30T11:11:12.580Z,111648.00
2018-07-30T11:12:12.591Z,121472.00
2018-07-30T11:13:12.597Z,134176.00
2018-07-30T11:14:12.599Z,137824.00
2018-07-30T11:15:12.603Z,137920.00
2018-07-30T11:16:12.603Z,130240.00
2018-07-30T11:17:12.609Z,128672.00
2018-07-30T11:18:12.622Z,125152.00
2018-07-30T11:19:12.622Z,124928.00
2018-07-30T11:20:12.635Z,123712.00
2018-07-30T11:21:12.635Z,131488.00
2018-07-30T11:22:12.641Z,133056.00
2018-07-30T11:23:12.654Z,133696.00
2018-07-30T11:24:12.664Z,131680.00
2018-07-30T11:25:12.685Z,126528.00
2018-07-30T11:26:12.673Z,124576.00
2018-07-30T11:27:12.679Z,126016.00
2018-07-30T11:28:12.747Z,124608.00
2018-07-30T11:29:12.695Z,123392.00
2018-07-30T11:30:12.702Z,124672.00
2018-07-30T11:31:12.708Z,119904.00
2018-07-30T11:32:12.719Z,108672.00
2018-07-30T11:33:12.722Z,101664.00
2018-07-30T11:34:12.731Z,102400.00
2018-07-30T11:35:12.745Z,112128.00
2018-07-30T11:36:12.741Z,113056.00
2018-07-30T11:37:12.758Z,108928.00
2018-07-30T11:38:12.767Z,111424.00
2018-07-30T11:39:12.784Z,120416.00
2018-07-30T11:40:12.790Z,123072.00
2018-07-30T11:41:12.786Z,122144.00
2018-07-30T11:42:12.799Z,121504.00
2018-07-30T11:43:12.812Z,123488.00
2018-07-30T11:44:12.806Z,122208.00
2018-07-30T11:45:12.817Z,119360.00
2018-07-30T11:46:12.831Z,117216.00
2018-07-30T11:47:12.843Z,112384.00
2018-07-30T11:48:12.849Z,113280.00
2018-07-30T11:49:12.867Z,118336.00
2018-07-30T11:50:12.863Z,121024.00
2018-07-30T11:51:12.886Z,119744.00
2018-07-30T11:52:12.883Z,115776.00
2018-07-30T11:53:12.892Z,114112.00
2018-07-30T11:54:12.917Z,115904.00
2018-07-30T11:55:12.908Z,117568.00
2018-07-30T11:56:12.914Z,113056.00
2018-07-30T11:57:12.935Z,111808.00
2018-07-30T11:58:12.942Z,111776.00
2018-07-30T11:59:12.948Z,115136.00
2018-07-30T12:00:12.962Z,117920.00
2018-07-30T12:01:12.985Z,120480.00
2018-07-30T12:02:12.971Z,118144.00
2018-07-30T12:03:13.006Z,115552.00
2018-07-30T12:04:12.997Z,114496.00
2018-07-30T12:05:13.006Z,112352.00
2018-07-30T12:06:13.012Z,107456.00
2018-07-30T12:07:13.026Z,102080.00
2018-07-30T12:08:13.044Z,104128.00
2018-07-30T12:09:13.051Z,109696.00
2018-07-30T12:10:13.058Z,114432.00
2018-07-30T12:11:13.061Z,119712.00
2018-07-30T12:12:13.087Z,125696.00
2018-07-30T12:13:13.090Z,126240.00
2018-07-30T12:14:13.096Z,129792.00
2018-07-30T12:15:13.101Z,124192.00